Time;durP1;ratioP1;P1;durP2;ratioP2;P2;SDS_P1;SDS_P2;PMS_P1;PMS_P2;Temp;Humidity;BMP_temperature;BMP_pressure;BME280_temperature;BME280_humidity;BME280_pressure;Samples;Min_cycle;Max_cycle;Signal;HPM_P1;HPM_P2
2022/08/06 00:01:49;;;;;;;4.75;1.33;;;;;;;16.11;60.41;102607.09;4947173;29;20042;-69
2022/08/06 00:04:15;;;;;;;6.70;1.30;;;;;;;16.12;60.40;102603.66;4952331;28;20031;-69
2022/08/06 00:06:41;;;;;;;6.80;1.33;;;;;;;16.07;60.78;102606.09;4952490;28;20031;-69
2022/08/06 00:09:06;;;;;;;5.45;1.40;;;;;;;16.00;61.03;102604.13;4947426;28;20032;-69
2022/08/06 00:11:32;;;;;;;6.93;1.58;;;;;;;15.98;61.02;102611.00;4950021;29;20031;-69
2022/08/06 00:13:57;;;;;;;4.88;1.27;;;;;;;15.92;61.34;102613.38;4950597;28;20084;-69
2022/08/06 00:16:22;;;;;;;4.32;1.38;;;;;;;15.91;60.59;102609.03;4949216;28;20097;-68
2022/08/06 00:18:48;;;;;;;6.22;1.45;;;;;;;15.89;60.86;102612.38;4950145;28;20037;-69
2022/08/06 00:21:13;;;;;;;3.72;1.20;;;;;;;15.89;60.89;102612.38;4951149;28;20481;-68
2022/08/06 00:23:39;;;;;;;5.10;1.33;;;;;;;15.87;60.83;102620.13;4947914;28;20042;-67
2022/08/06 00:26:04;;;;;;;6.05;1.83;;;;;;;15.84;60.79;102619.16;4948634;28;20063;-68
2022/08/06 00:28:29;;;;;;;5.53;1.42;;;;;;;15.80;60.93;102616.44;4946764;28;20032;-68
2022/08/06 00:30:55;;;;;;;5.82;1.30;;;;;;;15.76;61.26;102619.75;4949039;28;20031;-68
2022/08/06 00:33:20;;;;;;;5.40;1.42;;;;;;;15.77;61.85;102620.63;4950368;28;20035;-68
2022/08/06 00:35:45;;;;;;;5.40;1.50;;;;;;;15.65;62.51;102613.31;4949485;28;20493;-68
2022/08/06 00:38:12;;;;;;;10.68;1.50;;;;;;;15.68;61.97;102633.28;4947321;28;20035;-68
2022/08/06 00:40:37;;;;;;;5.38;1.20;;;;;;;15.60;62.47;102630.41;4952539;28;20031;-68
2022/08/06 00:43:04;;;;;;;5.40;1.35;;;;;;;15.57;61.96;102627.69;4946466;28;20078;-68
2022/08/06 00:45:31;;;;;;;5.47;1.65;;;;;;;15.56;62.24;102634.56;4948056;28;20031;-68
2022/08/06 00:47:56;;;;;;;4.75;1.50;;;;;;;15.58;62.22;102634.63;4958118;28;20027;-68
2022/08/06 00:50:22;;;;;;;4.82;1.45;;;;;;;15.49;62.56;102630.00;4945786;29;20539;-68
2022/08/06 00:52:47;;;;;;;4.95;1.40;;;;;;;15.51;62.57;102636.13;4949098;28;20024;-68
2022/08/06 00:55:13;;;;;;;4.63;1.50;;;;;;;15.53;62.32;102638.75;4948358;28;20085;-68
2022/08/06 00:57:38;;;;;;;7.53;1.33;;;;;;;15.46;62.45;102642.84;4948723;28;20054;-68
2022/08/06 01:00:06;;;;;;;4.82;1.58;;;;;;;15.44;62.72;102647.09;4948408;28;20059;-69
2022/08/06 01:02:31;;;;;;;7.55;1.60;;;;;;;15.39;63.00;102650.34;4945622;28;20042;-68
2022/08/06 01:04:57;;;;;;;2.67;1.20;;;;;;;15.37;63.04;102647.69;4948516;28;20027;-68
2022/08/06 01:07:22;;;;;;;5.50;1.30;;;;;;;15.34;63.26;102646.69;4947579;28;20043;-68
2022/08/06 01:09:49;;;;;;;6.00;1.67;;;;;;;15.35;63.33;102645.88;4948748;28;20551;-68
2022/08/06 01:12:15;;;;;;;7.05;1.40;;;;;;;15.33;63.55;102650.13;4945956;28;20165;-68
2022/08/06 01:14:40;;;;;;;4.20;1.30;;;;;;;15.30;63.84;102656.09;4962235;28;20089;-68
2022/08/06 01:17:18;;;;;;;7.22;1.38;;;;;;;15.35;63.45;102662.31;4948020;28;20031;-68
2022/08/06 01:19:59;;;;;;;7.60;1.67;;;;;;;15.36;63.45;102661.50;4946330;29;20050;-68
2022/08/06 01:22:36;;;;;;;6.63;1.60;;;;;;;15.26;64.01;102667.16;4944741;29;20059;-68
2022/08/06 01:25:27;;;;;;;6.25;1.60;;;;;;;15.28;63.92;102674.16;4948392;28;20050;-68
2022/08/06 01:28:08;;;;;;;5.43;1.48;;;;;;;15.29;63.91;102665.56;4948987;28;20041;-68
2022/08/06 01:30:42;;;;;;;3.42;1.30;;;;;;;15.26;64.38;102667.16;4942484;28;20143;-67
2022/08/06 01:33:16;;;;;;;6.63;1.50;;;;;;;15.29;63.98;102667.28;4948017;29;20101;-68
2022/08/06 01:35:56;;;;;;;6.45;1.50;;;;;;;15.30;63.23;102663.84;4947588;28;20023;-67
2022/08/06 01:38:24;;;;;;;4.38;1.45;;;;;;;15.27;63.72;102679.28;4937989;28;20543;-68
2022/08/06 01:40:51;;;;;;;5.18;1.30;;;;;;;15.28;64.02;102678.44;4944763;28;20031;-68
2022/08/06 01:43:19;;;;;;;6.10;1.80;;;;;;;15.27;64.14;102685.34;4944652;29;20784;-68
2022/08/06 01:45:46;;;;;;;5.25;1.52;;;;;;;15.17;64.67;102679.78;4947522;28;20537;-68
2022/08/06 01:48:17;;;;;;;8.13;1.67;;;;;;;15.15;64.71;102678.81;4947174;28;20370;-68
2022/08/06 01:50:48;;;;;;;5.85;1.58;;;;;;;15.16;64.92;102671.09;4942087;28;20458;-68
2022/08/06 01:53:18;;;;;;;4.88;1.50;;;;;;;15.12;64.99;102671.81;4948301;28;20520;-68
2022/08/06 01:55:48;;;;;;;7.88;1.50;;;;;;;15.02;65.68;102672.28;4949893;28;20389;-68
2022/08/06 01:58:16;;;;;;;5.47;1.63;;;;;;;15.06;65.55;102681.06;4948144;28;20050;-68
2022/08/06 02:00:46;;;;;;;6.20;1.52;;;;;;;15.02;65.37;102673.16;4963187;28;20034;-69
2022/08/06 02:03:14;;;;;;;;;;;;;;;15.32;63.65;102676.88;4951203;28;20035;-68
2022/08/06 02:05:42;;;;;;;4.97;1.50;;;;;;;14.99;65.58;102673.06;4953082;28;19922;-68
2022/08/06 02:08:11;;;;;;;8.50;2.00;;;;;;;14.95;65.65;102672.88;4951054;28;20069;-68
2022/08/06 02:10:37;;;;;;;5.93;2.33;;;;;;;14.99;65.72;102670.47;4946958;29;20106;-68
2022/08/06 02:13:04;;;;;;;7.00;1.73;;;;;;;14.90;66.00;102675.28;4949142;28;20170;-68
2022/08/06 02:15:32;;;;;;;9.60;2.20;;;;;;;14.91;66.29;102678.75;4947503;28;20069;-68
2022/08/06 02:18:01;;;;;;;5.07;1.50;;;;;;;14.92;65.55;102678.81;4944589;28;20058;-68
2022/08/06 02:20:43;;;;;;;4.97;1.50;;;;;;;14.90;65.33;102675.28;4947711;28;20031;-69
2022/08/06 02:23:13;;;;;;;4.95;1.90;;;;;;;14.83;65.20;102673.28;4952076;29;20035;-69
2022/08/06 02:25:41;;;;;;;3.85;1.40;;;;;;;14.74;65.50;102680.66;4950434;28;20156;-69
2022/08/06 02:28:06;;;;;;;4.68;1.60;;;;;;;14.72;65.72;102683.19;4952476;28;20407;-69
2022/08/06 02:30:38;;;;;;;5.38;1.67;;;;;;;14.77;65.83;102674.75;4951845;28;20077;-69
2022/08/06 02:33:05;;;;;;;4.78;1.40;;;;;;;14.72;65.88;102684.91;4944834;29;20032;-69
2022/08/06 02:35:36;;;;;;;6.30;1.70;;;;;;;14.70;65.81;102681.38;4949630;28;20040;-68
2022/08/06 02:38:07;;;;;;;4.65;1.40;;;;;;;14.68;65.42;102680.41;4951285;28;20035;-69
2022/08/06 02:40:46;;;;;;;5.55;1.63;;;;;;;14.68;65.44;102681.34;4949529;28;20058;-69
2022/08/06 02:43:22;;;;;;;6.82;1.55;;;;;;;14.73;65.33;102686.69;4949582;28;20168;-69
2022/08/06 02:46:10;;;;;;;5.53;1.60;;;;;;;14.73;65.12;102677.19;4951390;28;20112;-68
2022/08/06 02:48:54;;;;;;;5.05;1.50;;;;;;;14.61;65.88;102676.72;4943903;29;20058;-68
2022/08/06 02:51:27;;;;;;;5.15;1.67;;;;;;;14.52;65.85;102676.34;4951456;28;20030;-69
2022/08/06 02:54:01;;;;;;;3.40;1.60;;;;;;;14.55;65.59;102683.34;4949110;28;20043;-69
2022/08/06 02:56:29;;;;;;;4.05;1.73;;;;;;;14.43;66.29;102675.94;4944522;28;20035;-69
2022/08/06 02:58:57;;;;;;;5.85;1.58;;;;;;;14.41;66.07;102685.34;4958143;28;20494;-69
2022/08/06 03:01:26;;;;;;;7.88;2.00;;;;;;;14.34;66.51;102681.63;4948387;28;20074;-69
2022/08/06 03:03:55;;;;;;;6.18;1.95;;;;;;;14.32;66.94;102688.44;4945963;28;20023;-68
2022/08/06 03:06:24;;;;;;;4.90;1.98;;;;;;;14.36;66.96;102679.97;4949915;28;20035;-69
2022/08/06 03:08:52;;;;;;;6.85;2.00;;;;;;;14.36;66.80;102684.25;4948581;28;20027;-68
2022/08/06 03:11:19;;;;;;;8.85;1.77;;;;;;;14.26;67.22;102688.19;4951095;28;20027;-69
2022/08/06 03:13:45;;;;;;;5.40;1.83;;;;;;;14.20;67.29;102690.53;4965535;28;20101;-69
2022/08/06 03:16:12;;;;;;;6.90;1.70;;;;;;;14.11;66.97;102692.69;4933371;28;20043;-70
2022/08/06 03:18:41;;;;;;;6.43;1.60;;;;;;;14.13;66.60;102691.94;4949769;28;20034;-69
2022/08/06 03:21:08;;;;;;;4.35;1.60;;;;;;;14.13;66.45;102691.06;4949401;28;20023;-69
2022/08/06 03:23:34;;;;;;;4.47;1.60;;;;;;;14.14;66.50;102685.97;4949460;28;20023;-69
2022/08/06 03:26:01;;;;;;;5.40;1.65;;;;;;;14.14;66.73;102695.44;4950892;28;20066;-69
2022/08/06 03:28:28;;;;;;;4.80;1.65;;;;;;;14.11;66.52;102696.16;4951410;28;20031;-68
2022/08/06 03:30:54;;;;;;;6.88;1.50;;;;;;;14.11;66.62;102703.06;4933987;28;20386;-69
2022/08/06 03:33:21;;;;;;;6.47;1.88;;;;;;;14.08;67.06;102696.06;4949488;28;20031;-69
2022/08/06 03:35:49;;;;;;;4.90;1.58;;;;;;;14.10;67.12;102699.59;4947174;29;20039;-69
2022/08/06 03:38:15;;;;;;;6.32;1.80;;;;;;;14.12;67.01;102697.94;4950687;28;20031;-69
2022/08/06 03:40:46;;;;;;;5.50;2.00;;;;;;;14.14;66.96;102703.19;4946540;28;20712;-69
2022/08/06 03:43:11;;;;;;;6.32;2.00;;;;;;;14.10;67.11;102709.94;4961076;28;20594;-69
2022/08/06 03:45:44;;;;;;;5.85;1.60;;;;;;;14.06;67.37;102705.44;4949390;28;20039;-69
2022/08/06 03:48:14;;;;;;;5.78;2.10;;;;;;;14.04;67.34;102693.25;4944952;28;20019;-69
2022/08/06 03:50:43;;;;;;;5.65;1.88;;;;;;;14.07;67.05;102698.56;4948679;28;20035;-69
2022/08/06 03:53:21;;;;;;;4.57;1.63;;;;;;;14.08;66.91;102700.34;4945722;28;20023;-69
2022/08/06 03:55:48;;;;;;;5.75;1.70;;;;;;;14.05;66.81;102713.13;4951194;28;20019;-69
2022/08/06 03:58:15;;;;;;;7.70;2.05;;;;;;;14.07;66.71;102712.38;4946811;28;20100;-69
2022/08/06 04:00:46;;;;;;;3.90;1.92;;;;;;;14.05;66.40;102714.00;4954445;28;20378;-69
2022/08/06 04:03:14;;;;;;;6.88;1.83;;;;;;;14.00;66.66;102722.38;4950458;29;20980;-69
2022/08/06 04:05:42;;;;;;;4.82;1.55;;;;;;;14.00;66.58;102720.69;4949480;28;20576;-69
2022/08/06 04:08:09;;;;;;;6.50;1.73;;;;;;;13.98;66.76;102724.03;4949480;28;20032;-69
2022/08/06 04:10:48;;;;;;;3.40;1.65;;;;;;;13.92;66.69;102725.53;4950945;28;20062;-69
2022/08/06 04:13:15;;;;;;;5.70;2.05;;;;;;;13.89;67.01;102735.75;4948555;28;20034;-69
2022/08/06 04:15:41;;;;;;;5.00;1.60;;;;;;;13.80;67.15;102739.63;4946881;28;20057;-69
2022/08/06 04:18:12;;;;;;;5.35;1.67;;;;;;;13.81;67.30;102738.81;4947091;28;20046;-68
2022/08/06 04:20:41;;;;;;;4.85;2.08;;;;;;;13.72;67.79;102734.13;4942776;29;20038;-68
2022/08/06 04:23:06;;;;;;;5.03;2.13;;;;;;;13.69;67.61;102739.13;4950580;28;20059;-69
2022/08/06 04:25:38;;;;;;;6.05;1.90;;;;;;;13.75;67.64;102735.94;4959953;28;20449;-68
2022/08/06 04:28:05;;;;;;;4.80;1.90;;;;;;;13.71;67.77;102746.94;4945224;28;20034;-68
2022/08/06 04:30:32;;;;;;;4.07;1.60;;;;;;;13.74;67.38;102747.09;4946832;28;20050;-68
2022/08/06 04:32:59;;;;;;;4.13;1.58;;;;;;;13.69;67.39;102750.34;4945189;28;20454;-67
2022/08/06 04:35:24;;;;;;;5.65;2.08;;;;;;;13.66;67.25;102754.53;4949695;29;20031;-67
2022/08/06 04:37:51;;;;;;;3.75;1.80;;;;;;;13.65;67.49;102748.47;4945890;29;20057;-68
2022/08/06 04:40:16;;;;;;;6.20;1.60;;;;;;;13.70;67.67;102756.41;4948250;28;20039;-68
2022/08/06 04:42:42;;;;;;;3.58;1.42;;;;;;;13.60;67.90;102742.19;4945867;28;20097;-68
2022/08/06 04:45:08;;;;;;;5.40;1.70;;;;;;;13.57;68.52;102748.91;4947514;28;20031;-68
2022/08/06 04:47:35;;;;;;;5.80;1.75;;;;;;;13.61;68.50;102756.00;4940546;28;20091;-68
2022/08/06 04:50:01;;;;;;;4.03;2.00;;;;;;;13.59;69.12;102752.44;4948221;29;20548;-68
2022/08/06 04:52:28;;;;;;;5.90;1.70;;;;;;;13.61;69.33;102756.88;4950578;28;20138;-68
2022/08/06 04:54:53;;;;;;;4.43;2.13;;;;;;;13.63;69.94;102759.53;4946500;28;20035;-68
2022/08/06 04:57:19;;;;;;;7.10;1.77;;;;;;;13.62;70.85;102763.81;4947013;28;20347;-68
2022/08/06 04:59:44;;;;;;;6.80;1.90;;;;;;;13.70;70.67;102759.00;4947468;28;20039;-68
2022/08/06 05:02:10;;;;;;;4.60;2.00;;;;;;;13.73;70.83;102774.66;4951348;28;20105;-68
2022/08/06 05:04:37;;;;;;;6.90;1.92;;;;;;;13.78;70.85;102765.41;4949747;28;20027;-68
2022/08/06 05:07:13;;;;;;;6.75;2.22;;;;;;;13.88;70.21;102766.69;4947388;29;20031;-68
2022/08/06 05:09:39;;;;;;;6.82;2.03;;;;;;;13.94;70.74;102766.97;4949661;28;20536;-68
2022/08/06 05:12:11;;;;;;;5.78;2.10;;;;;;;13.92;71.07;102766.03;4943672;28;20050;-68
2022/08/06 05:14:41;;;;;;;5.22;1.92;;;;;;;13.99;71.44;102765.47;4948886;28;20087;-68
2022/08/06 05:17:10;;;;;;;5.78;2.05;;;;;;;14.03;70.90;102775.16;4950997;28;20035;-68
2022/08/06 05:19:44;;;;;;;4.25;2.20;;;;;;;14.05;70.75;102775.22;4950468;28;20059;-68
2022/08/06 05:22:13;;;;;;;3.72;1.58;;;;;;;14.07;70.49;102783.91;4944612;28;20027;-68
2022/08/06 05:24:40;;;;;;;5.60;1.77;;;;;;;14.05;70.31;102780.38;4940649;28;20034;-68
2022/08/06 05:27:05;;;;;;;6.15;1.90;;;;;;;14.08;70.00;102780.53;4949207;28;20067;-68
2022/08/06 05:29:31;;;;;;;5.63;2.00;;;;;;;14.09;70.05;102787.47;4954489;28;20434;-68
2022/08/06 05:32:01;;;;;;;4.47;1.80;;;;;;;14.17;69.86;102786.09;4948135;28;20027;-68
2022/08/06 05:34:27;;;;;;;7.38;2.03;;;;;;;14.17;70.10;102791.28;4952384;28;20035;-68
2022/08/06 05:36:52;;;;;;;7.38;1.95;;;;;;;14.17;69.77;102791.28;4953102;28;20470;-68
2022/08/06 05:39:19;;;;;;;6.80;2.03;;;;;;;14.23;69.84;102792.44;4951642;28;20049;-68
2022/08/06 05:41:45;;;;;;;6.57;2.30;;;;;;;14.23;70.19;102794.13;4953697;28;20105;-68
2022/08/06 05:44:10;;;;;;;4.22;1.88;;;;;;;14.31;69.94;102795.34;4950913;28;20042;-68
2022/08/06 05:46:40;;;;;;;5.32;2.30;;;;;;;14.37;70.40;102805.97;4952718;28;20081;-68
2022/08/06 05:49:21;;;;;;;2.72;1.75;;;;;;;14.51;70.28;102795.38;4953067;29;20040;-68
2022/08/06 05:51:56;;;;;;;4.78;1.90;;;;;;;14.54;70.53;102798.06;4950267;29;20119;-68
2022/08/06 05:54:29;;;;;;;7.00;2.35;;;;;;;14.60;70.81;102800.91;4949727;28;20351;-69
2022/08/06 05:57:21;;;;;;;5.30;2.22;;;;;;;14.65;71.12;102797.72;4961619;28;20040;-68
2022/08/06 05:59:55;;;;;;;5.63;2.30;;;;;;;14.75;71.20;102797.28;4944350;28;20101;-69
2022/08/06 06:02:23;;;;;;;7.88;2.40;;;;;;;14.84;71.09;102798.47;4950441;29;20043;-69
2022/08/06 06:04:49;;;;;;;7.95;2.20;;;;;;;14.90;71.36;102804.78;4952111;28;20035;-69
2022/08/06 06:07:15;;;;;;;6.32;2.00;;;;;;;14.95;70.74;102807.56;4950138;29;20039;-69
2022/08/06 06:09:42;;;;;;;4.57;2.05;;;;;;;15.02;70.96;102805.28;4951975;28;20023;-69
2022/08/06 06:12:09;;;;;;;7.18;2.25;;;;;;;15.11;70.94;102809.97;4949585;29;20023;-68
2022/08/06 06:14:41;;;;;;;7.25;2.65;;;;;;;15.18;70.69;102811.09;4945842;28;20065;-69
2022/08/06 06:17:15;;;;;;;8.30;2.50;;;;;;;15.26;70.69;102809.69;4950220;28;20031;-69
2022/08/06 06:20:12;;;;;;;7.45;2.38;;;;;;;15.35;70.35;102822.13;4952624;28;20019;-69
2022/08/06 06:22:41;;;;;;;8.57;2.15;;;;;;;15.44;70.85;102812.13;4949613;29;20032;-68
2022/08/06 06:25:12;;;;;;;;;;;;;;;15.60;69.88;102811.91;4952265;29;20063;-69
2022/08/06 06:27:52;;;;;;;5.32;2.20;;;;;;;15.65;70.27;102818.19;4953104;28;20334;-68
2022/08/06 06:30:33;;;;;;;5.70;1.95;;;;;;;15.75;70.23;102819.41;4943393;29;20035;-68
2022/08/06 06:33:19;;;;;;;9.77;2.50;;;;;;;15.76;70.35;102814.28;4952132;28;20041;-68
2022/08/06 06:35:55;;;;;;;7.07;2.42;;;;;;;15.86;69.72;102818.09;4952180;28;20027;-69
2022/08/06 06:38:53;;;;;;;6.65;2.05;;;;;;;16.00;69.30;102826.41;4950897;28;20023;-68
2022/08/06 06:41:27;;;;;;;6.55;2.08;;;;;;;16.03;69.67;102822.22;4948882;28;20416;-69
2022/08/06 06:43:55;;;;;;;9.73;2.17;;;;;;;16.13;69.27;102819.94;4951787;29;20097;-68
2022/08/06 06:46:43;;;;;;;10.40;2.90;;;;;;;16.21;69.27;102818.53;4951759;28;20028;-69
2022/08/06 06:49:24;;;;;;;5.30;2.05;;;;;;;16.23;69.11;102822.94;4953491;29;20102;-68
2022/08/06 06:51:55;;;;;;;4.80;1.80;;;;;;;16.35;69.04;102823.38;4950107;28;20034;-69
2022/08/06 06:54:28;;;;;;;7.22;2.00;;;;;;;16.49;69.17;102830.75;4949452;29;20034;-68
2022/08/06 06:56:56;;;;;;;5.38;1.60;;;;;;;16.65;69.28;102821.78;4950474;28;20051;-69
2022/08/06 06:59:34;;;;;;;9.15;2.08;;;;;;;16.67;68.22;102826.19;4949778;28;20035;-69
2022/08/06 07:02:03;;;;;;;11.57;2.20;;;;;;;16.85;68.00;102825.97;4951115;29;20039;-70
2022/08/06 07:04:30;;;;;;;6.30;1.90;;;;;;;16.87;67.57;102825.19;4947977;28;20290;-69
2022/08/06 07:06:57;;;;;;;8.32;1.83;;;;;;;17.02;67.08;102819.63;4950253;28;20059;-70
2022/08/06 07:09:27;;;;;;;7.57;1.70;;;;;;;17.04;67.06;102833.53;4953473;28;20110;-69
2022/08/06 07:11:55;;;;;;;5.50;1.58;;;;;;;17.19;67.12;102822.75;4953576;28;20034;-69
2022/08/06 07:14:22;;;;;;;11.07;2.53;;;;;;;17.30;67.26;102825.72;4950714;28;20039;-69
2022/08/06 07:16:50;;;;;;;4.63;1.65;;;;;;;17.44;66.55;102834.81;4946185;28;20512;-68
2022/08/06 07:19:17;;;;;;;5.55;1.10;;;;;;;17.46;63.84;102827.94;4948484;28;20019;-67
2022/08/06 07:21:45;;;;;;;4.97;1.23;;;;;;;17.57;64.22;102833.47;4949171;28;20042;-68
2022/08/06 07:24:14;;;;;;;5.97;1.20;;;;;;;17.52;62.35;102824.63;4948362;29;20027;-68
2022/08/06 07:26:46;;;;;;;2.88;0.88;;;;;;;17.60;62.74;102821.44;4944071;29;20052;-69
2022/08/06 07:29:15;;;;;;;6.88;1.30;;;;;;;17.71;63.43;102829.56;4948495;29;20173;-68
2022/08/06 07:31:41;;;;;;;4.35;0.93;;;;;;;17.88;64.26;102828.38;4946370;28;20039;-68
2022/08/06 07:34:07;;;;;;;5.88;1.10;;;;;;;17.96;62.94;102826.03;4948000;29;20382;-68
2022/08/06 07:36:38;;;;;;;6.93;0.90;;;;;;;18.06;62.11;102832.34;4948890;29;20046;-68
2022/08/06 07:39:09;;;;;;;4.90;0.88;;;;;;;18.19;62.14;102837.06;4948133;28;20035;-69
2022/08/06 07:41:37;;;;;;;5.13;0.95;;;;;;;18.28;61.62;102828.63;4945130;29;20028;-68
2022/08/06 07:44:05;;;;;;;8.88;1.35;;;;;;;18.40;61.29;102840.28;4947107;28;20043;-68
2022/08/06 07:46:39;;;;;;;2.92;0.70;;;;;;;18.44;59.44;102849.03;4947562;29;20006;-68
2022/08/06 07:49:06;;;;;;;4.30;0.80;;;;;;;18.48;58.67;102840.47;4942738;28;20971;-65
2022/08/06 07:51:38;;;;;;;3.17;0.60;;;;;;;18.57;57.85;102851.16;4952995;28;20073;-65
2022/08/06 07:54:06;;;;;;;4.32;0.68;;;;;;;18.63;56.55;102846.09;4949117;28;20081;-67
2022/08/06 07:56:35;;;;;;;4.10;0.90;;;;;;;18.66;56.93;102848.78;4957474;28;20116;-64
2022/08/06 07:59:03;;;;;;;6.38;0.85;;;;;;;18.68;56.65;102851.44;4942165;29;20044;-65
2022/08/06 08:01:29;;;;;;;3.70;0.75;;;;;;;18.74;56.52;102849.00;4948519;28;20089;-65
2022/08/06 08:06:41;;;;;;;5.65;0.68;;;;;;;18.73;54.05;102850.72;4946613;28;20114;-65
2022/08/06 08:09:10;;;;;;;5.78;1.00;;;;;;;18.85;55.51;102849.28;4950739;28;20584;-64
2022/08/06 08:11:40;;;;;;;2.38;0.70;;;;;;;18.94;55.36;102853.00;4948282;28;20023;-64
2022/08/06 08:14:08;;;;;;;4.30;0.80;;;;;;;19.00;54.21;102855.78;4948578;28;20039;-65
2022/08/06 08:16:34;;;;;;;3.80;0.82;;;;;;;19.03;54.11;102857.56;4946534;28;20053;-67
2022/08/06 08:19:00;;;;;;;1.80;0.55;;;;;;;19.13;53.37;102858.69;4950622;28;20031;-64
2022/08/06 08:21:27;;;;;;;3.42;0.90;;;;;;;19.18;52.57;102854.47;4951432;28;20036;-65
2022/08/06 08:23:53;;;;;;;2.95;0.60;;;;;;;19.13;53.43;102861.28;4945237;28;20038;-65
2022/08/06 08:26:19;;;;;;;5.15;0.85;;;;;;;19.02;51.59;102861.91;4952636;28;20051;-65
2022/08/06 08:28:44;;;;;;;3.70;0.90;;;;;;;19.06;52.72;102870.69;4953107;28;20062;-66
2022/08/06 08:31:13;;;;;;;2.33;0.90;;;;;;;18.98;51.30;102870.47;4944618;28;20023;-65
2022/08/06 08:33:39;;;;;;;3.63;0.70;;;;;;;19.13;52.76;102866.50;4943077;29;20139;-65
2022/08/06 08:36:05;;;;;;;3.80;0.70;;;;;;;19.15;54.27;102860.47;4947393;28;20035;-65
2022/08/06 08:38:32;;;;;;;5.05;0.80;;;;;;;19.18;52.60;102851.84;4949578;28;20046;-65
2022/08/06 08:41:12;;;;;;;2.92;0.70;;;;;;;19.33;52.74;102870.47;4944459;28;20028;-65
2022/08/06 08:43:52;;;;;;;3.72;0.70;;;;;;;19.29;52.22;102866.00;4944382;29;20035;-65
2022/08/06 08:46:18;;;;;;;3.40;0.70;;;;;;;19.26;52.11;102864.22;4949675;29;20058;-64
2022/08/06 08:48:44;;;;;;;1.90;0.65;;;;;;;19.24;50.79;102860.72;4950963;28;20037;-65
2022/08/06 08:51:12;;;;;;;2.03;0.60;;;;;;;19.36;51.58;102862.72;4947846;28;20118;-64
2022/08/06 08:53:52;;;;;;;4.20;0.90;;;;;;;19.41;50.52;102862.81;4948338;29;20061;-64
2022/08/06 08:56:18;;;;;;;1.60;0.50;;;;;;;19.43;47.71;102867.22;4941948;29;20035;-65
2022/08/06 08:58:44;;;;;;;3.42;0.68;;;;;;;19.47;47.59;102866.44;4948685;29;20485;-65
2022/08/06 09:01:10;;;;;;;2.03;0.80;;;;;;;19.59;47.84;102862.38;4950047;28;20055;-65
2022/08/06 09:03:38;;;;;;;5.15;0.90;;;;;;;19.70;49.97;102860.91;4951245;28;20016;-65
2022/08/06 09:06:05;;;;;;;3.42;0.65;;;;;;;19.79;50.04;102872.44;4950010;28;20035;-66
2022/08/06 09:08:31;;;;;;;4.35;0.55;;;;;;;19.79;49.25;102876.78;4957944;28;20484;-65
2022/08/06 09:10:58;;;;;;;2.83;0.63;;;;;;;19.94;48.65;102882.31;4953914;28;20030;-66
2022/08/06 09:13:24;;;;;;;0.98;0.40;;;;;;;19.94;47.76;102881.44;4953773;28;20049;-63
2022/08/06 09:15:51;;;;;;;1.40;0.55;;;;;;;19.97;48.15;102879.78;4951946;28;20041;-65
2022/08/06 09:18:16;;;;;;;2.00;0.73;;;;;;;20.05;48.36;102882.56;4957045;29;20932;-65
2022/08/06 09:20:42;;;;;;;1.83;0.50;;;;;;;19.98;46.01;102884.16;4950829;28;20501;-66
2022/08/06 09:23:07;;;;;;;2.97;1.30;;;;;;;20.09;47.69;102882.66;4955114;28;20059;-66
2022/08/06 09:25:40;;;;;;;2.22;0.50;;;;;;;20.11;46.69;102877.47;4956036;28;20470;-66
2022/08/06 09:28:25;;;;;;;2.95;0.90;;;;;;;20.18;46.75;102886.28;4957772;28;20098;-66
2022/08/06 09:30:59;;;;;;;2.15;0.57;;;;;;;20.21;47.73;102887.25;4968239;28;20023;-66
2022/08/06 09:33:25;;;;;;;2.70;0.60;;;;;;;20.22;45.99;102885.53;4958017;28;20454;-66
2022/08/06 09:36:01;;;;;;;2.90;0.60;;;;;;;20.36;47.29;102874.47;4955099;28;20108;-64
2022/08/06 09:38:27;;;;;;;2.70;0.50;;;;;;;20.39;47.52;102881.50;4952625;28;20110;-65
2022/08/06 09:41:11;;;;;;;2.58;0.60;;;;;;;20.49;47.85;102883.47;4950627;28;20034;-65
2022/08/06 09:43:38;;;;;;;3.50;0.55;;;;;;;20.33;45.69;102886.63;4947825;28;20031;-65
2022/08/06 09:46:04;;;;;;;2.42;0.65;;;;;;;20.35;46.50;102884.91;4956817;28;20126;-65
2022/08/06 09:48:30;;;;;;;2.55;0.52;;;;;;;20.35;46.35;102885.78;4957507;28;20073;-65
2022/08/06 09:50:56;;;;;;;2.20;0.60;;;;;;;20.29;45.71;102897.84;4957852;28;20544;-66
2022/08/06 09:53:22;;;;;;;3.30;0.80;;;;;;;20.24;46.38;102895.13;4957498;28;20042;-67
2022/08/06 09:55:53;;;;;;;3.63;0.80;;;;;;;20.29;46.08;102880.44;4953406;28;20397;-71
2022/08/06 09:58:37;;;;;;;3.67;0.50;;;;;;;20.42;45.58;102893.75;4954340;28;20031;-70
2022/08/06 10:01:20;;;;;;;2.08;0.50;;;;;;;20.55;45.74;102880.97;4956512;28;20521;-70
2022/08/06 10:03:46;;;;;;;2.10;0.70;;;;;;;20.62;46.23;102890.69;4956472;28;20060;-70
2022/08/06 10:06:20;;;;;;;5.32;0.75;;;;;;;20.74;46.09;102884.78;4958460;28;20110;-71
2022/08/06 10:08:46;;;;;;;4.15;0.60;;;;;;;20.74;45.58;102884.78;4956536;29;20031;-70
2022/08/06 10:11:12;;;;;;;3.13;0.65;;;;;;;20.79;45.00;102883.16;4957754;28;20027;-70
2022/08/06 10:13:38;;;;;;;2.70;0.50;;;;;;;20.72;44.52;102886.50;4961095;28;20072;-70
2022/08/06 10:16:18;;;;;;;5.57;0.73;;;;;;;20.65;44.39;102887.25;4958423;28;20031;-69
2022/08/06 10:18:49;;;;;;;2.33;0.55;;;;;;;20.57;43.35;102884.50;4961094;28;20085;-70
2022/08/06 10:21:22;;;;;;;2.17;0.68;;;;;;;20.61;42.97;102893.28;4958983;28;20039;-70
2022/08/06 10:23:50;;;;;;;2.35;0.50;;;;;;;20.63;43.11;102878.53;4949429;28;20038;-70
2022/08/06 10:26:31;;;;;;;2.43;0.60;;;;;;;20.74;43.68;102874.34;4950673;28;20110;-70
2022/08/06 10:29:03;;;;;;;4.50;1.05;;;;;;;20.76;42.92;102867.44;4948620;28;20030;-71
2022/08/06 10:31:29;;;;;;;3.63;0.95;;;;;;;20.78;42.44;102860.47;4951313;28;20034;-70
2022/08/06 10:34:09;;;;;;;3.33;0.63;;;;;;;20.76;43.23;102862.19;4951032;28;20039;-70
2022/08/06 10:36:44;;;;;;;3.63;0.47;;;;;;;20.88;44.21;102862.41;4952651;28;20039;-69
2022/08/06 10:39:10;;;;;;;4.13;0.52;;;;;;;20.96;44.79;102851.19;4954529;28;20106;-69
2022/08/06 10:41:38;;;;;;;2.90;0.52;;;;;;;21.03;44.15;102863.50;4954382;28;20063;-70
2022/08/06 10:44:05;;;;;;;2.63;0.50;;;;;;;21.13;43.77;102862.81;4952514;28;20081;-70
2022/08/06 10:46:31;;;;;;;4.40;0.55;;;;;;;21.12;42.70;102854.09;4946779;28;20028;-71
2022/08/06 10:48:57;;;;;;;3.90;0.52;;;;;;;21.08;41.91;102860.13;4951170;29;20035;-70
2022/08/06 10:51:23;;;;;;;2.10;0.50;;;;;;;21.01;41.32;102854.78;4948789;28;20053;-70
2022/08/06 10:53:49;;;;;;;3.00;0.50;;;;;;;20.99;42.37;102856.47;4948337;28;20106;-70
2022/08/06 10:56:17;;;;;;;2.67;0.60;;;;;;;21.05;41.81;102853.94;4946109;29;20031;-70
2022/08/06 10:58:43;;;;;;;2.55;0.60;;;;;;;21.11;41.88;102857.56;4949766;28;20050;-70
2022/08/06 11:01:33;;;;;;;3.20;0.60;;;;;;;21.16;42.61;102853.25;4944757;28;20031;-70
2022/08/06 11:04:13;;;;;;;2.13;0.50;;;;;;;21.25;42.22;102852.53;4949071;29;20042;-70
2022/08/06 11:07:11;;;;;;;3.30;0.60;;;;;;;21.29;42.48;102854.38;4946621;28;20056;-70
2022/08/06 11:10:14;;;;;;;1.15;0.45;;;;;;;21.42;43.09;102855.47;4950425;28;20023;-70
2022/08/06 11:12:55;;;;;;;2.53;0.73;;;;;;;21.46;41.53;102846.78;4952431;28;20027;-70
2022/08/06 11:15:20;;;;;;;4.63;0.63;;;;;;;21.49;40.51;102845.94;4962580;28;20034;-70
2022/08/06 11:17:53;;;;;;;1.73;0.47;;;;;;;21.45;38.40;102845.00;4951601;28;20024;-70
2022/08/06 11:20:33;;;;;;;2.05;0.45;;;;;;;21.55;38.76;102846.03;4950860;28;20027;-70
2022/08/06 11:22:59;;;;;;;1.55;0.60;;;;;;;21.53;36.98;102842.50;4956355;28;20027;-70
2022/08/06 11:25:44;;;;;;;2.60;0.50;;;;;;;21.49;37.48;102835.47;4955565;28;20459;-69
2022/08/06 11:28:36;;;;;;;2.38;0.55;;;;;;;21.51;37.67;102839.88;4949653;28;20031;-69
2022/08/06 11:31:04;;;;;;;1.58;0.40;;;;;;;21.55;37.05;102838.19;4954593;28;20051;-70
2022/08/06 11:33:32;;;;;;;2.30;0.52;;;;;;;21.63;37.54;102836.53;4945175;28;20019;-70
2022/08/06 11:36:19;;;;;;;3.63;0.50;;;;;;;21.67;37.59;102826.13;4945352;28;20482;-70
2022/08/06 11:38:48;;;;;;;2.30;0.40;;;;;;;21.75;38.05;102828.84;4953145;28;21802;-70
2022/08/06 11:41:21;;;;;;;0.85;0.38;;;;;;;21.86;38.32;102827.25;4951066;29;20026;-69
2022/08/06 11:43:52;;;;;;;1.67;0.50;;;;;;;21.90;38.21;102830.75;4945421;29;20382;-68